Time;durP1;ratioP1;P1;durP2;ratioP2;P2;SDS_P1;SDS_P2;PMS_P1;PMS_P2;Temp;Humidity;BMP_temperature;BMP_pressure;BME280_temperature;BME280_humidity;BME280_pressure;Samples;Min_cycle;Max_cycle;Signal;HPM_P1;HPM_P2
2023/04/15 00:00:52;;;;;;;10.45;5.00;;;;;;;;;;5016901;28;25050;-74
2023/04/15 00:03:18;;;;;;;12.00;3.67;;;;;;;;;;5024188;28;25129;-73
2023/04/15 00:05:44;;;;;;;10.32;3.83;;;;;;;;;;5026247;28;25083;-74
2023/04/15 00:08:11;;;;;;;9.27;3.78;;;;;;;;;;5026770;28;25081;-74
2023/04/15 00:10:37;;;;;;;7.38;3.33;;;;;;;;;;5031753;28;25077;-72
2023/04/15 00:13:03;;;;;;;13.63;3.80;;;;;;;;;;5027686;28;25100;-73
2023/04/15 00:15:29;;;;;;;7.25;3.15;;;;;;;;;;5020703;28;25044;-71
2023/04/15 00:17:55;;;;;;;8.68;3.90;;;;;;;;;;5012336;28;25070;-74
2023/04/15 00:20:21;;;;;;;7.70;3.60;;;;;;;;;;5009588;28;25053;-73
2023/04/15 00:22:47;;;;;;;8.35;3.85;;;;;;;;;;5010730;28;25120;-74
2023/04/15 00:25:14;;;;;;;12.18;4.07;;;;;;;;;;5014091;28;25070;-74
2023/04/15 00:27:40;;;;;;;7.97;3.80;;;;;;;;;;5021489;28;25058;-72
2023/04/15 00:30:06;;;;;;;9.77;3.65;;;;;;;;;;5001213;28;25131;-72
2023/04/15 00:32:33;;;;;;;13.77;3.95;;;;;;;;;;5017376;28;25081;-74
2023/04/15 00:34:58;;;;;;;7.30;3.63;;;;;;;;;;5016936;28;25072;-74
2023/04/15 00:37:24;;;;;;;8.23;3.78;;;;;;;;;;5010595;28;25168;-73
2023/04/15 00:39:50;;;;;;;8.60;4.20;;;;;;;;;;5014363;28;25127;-74
2023/04/15 00:42:17;;;;;;;8.05;4.00;;;;;;;;;;5023439;28;25070;-74
2023/04/15 00:44:43;;;;;;;10.20;4.38;;;;;;;;;;5013523;28;25074;-76
2023/04/15 00:47:10;;;;;;;13.82;4.47;;;;;;;;;;5010658;28;25057;-73
2023/04/15 00:49:36;;;;;;;7.20;3.33;;;;;;;;;;5018961;28;25129;-74
2023/04/15 00:52:02;;;;;;;12.60;4.45;;;;;;;;;;5017329;28;25142;-74
2023/04/15 00:54:28;;;;;;;9.32;4.10;;;;;;;;;;5016561;28;25139;-73
2023/04/15 00:56:55;;;;;;;11.95;4.20;;;;;;;;;;5012992;28;25096;-74
2023/04/15 00:59:21;;;;;;;9.13;4.57;;;;;;;;;;5004315;28;25148;-75
2023/04/15 01:01:47;;;;;;;9.30;4.43;;;;;;;;;;5016195;28;25067;-73
2023/04/15 01:04:13;;;;;;;11.52;4.32;;;;;;;;;;5011453;28;25071;-74
2023/04/15 01:06:39;;;;;;;11.02;3.88;;;;;;;;;;5013988;28;25055;-74
2023/04/15 01:09:05;;;;;;;10.40;4.65;;;;;;;;;;5013714;28;25058;-75
2023/04/15 01:11:33;;;;;;;6.75;4.18;;;;;;;;;;5012600;28;25080;-75
2023/04/15 01:13:59;;;;;;;16.00;5.00;;;;;;;;;;5008461;28;25123;-73
2023/04/15 01:16:27;;;;;;;12.25;5.35;;;;;;;;;;5009105;28;25114;-72
2023/04/15 01:18:53;;;;;;;11.85;4.13;;;;;;;;;;4999119;28;25146;-74
2023/04/15 01:21:19;;;;;;;11.65;4.95;;;;;;;;;;5010746;28;25057;-75
2023/04/15 01:23:47;;;;;;;13.07;5.38;;;;;;;;;;4998726;28;25066;-73
2023/04/15 01:26:13;;;;;;;11.80;5.32;;;;;;;;;;5010612;28;25071;-74
2023/04/15 01:28:39;;;;;;;10.48;4.75;;;;;;;;;;5009379;28;25069;-76
2023/04/15 01:31:06;;;;;;;13.05;5.38;;;;;;;;;;5004430;28;25134;-74
2023/04/15 01:33:32;;;;;;;14.52;4.80;;;;;;;;;;4984416;28;25071;-75
2023/04/15 01:35:58;;;;;;;11.70;5.18;;;;;;;;;;5009469;28;25103;-75
2023/04/15 01:38:26;;;;;;;11.50;4.93;;;;;;;;;;5008326;28;25089;-75
2023/04/15 01:40:52;;;;;;;12.27;4.65;;;;;;;;;;4999016;28;25103;-74
2023/04/15 01:43:19;;;;;;;10.10;4.68;;;;;;;;;;5018241;28;25071;-76
2023/04/15 01:45:45;;;;;;;10.88;5.03;;;;;;;;;;4998789;28;25052;-75
2023/04/15 01:48:12;;;;;;;8.88;4.55;;;;;;;;;;4999769;28;25056;-73
2023/04/15 01:50:37;;;;;;;9.45;4.90;;;;;;;;;;4994035;28;25077;-74
2023/04/15 01:53:04;;;;;;;9.43;5.07;;;;;;;;;;5011474;28;25083;-74
2023/04/15 01:55:30;;;;;;;9.55;4.90;;;;;;;;;;5031009;28;25082;-73
2023/04/15 01:57:56;;;;;;;11.98;5.13;;;;;;;;;;5023007;28;25075;-74
2023/04/15 02:00:22;;;;;;;10.77;5.65;;;;;;;;;;5018206;28;25077;-75
2023/04/15 02:02:48;;;;;;;10.18;5.30;;;;;;;;;;4999315;28;25069;-76
2023/04/15 02:05:15;;;;;;;10.20;4.63;;;;;;;;;;5019405;28;25082;-76
2023/04/15 02:07:42;;;;;;;10.05;5.45;;;;;;;;;;5030806;28;25059;-76
2023/04/15 02:10:09;;;;;;;8.35;4.63;;;;;;;;;;5037652;28;25054;-76
2023/04/15 02:12:35;;;;;;;15.10;5.85;;;;;;;;;;5028275;28;25072;-75
2023/04/15 02:15:01;;;;;;;10.13;4.88;;;;;;;;;;5018378;28;25071;-75
2023/04/15 02:17:27;;;;;;;8.70;5.35;;;;;;;;;;5019548;28;25130;-73
2023/04/15 02:19:55;;;;;;;13.00;5.43;;;;;;;;;;5014500;28;25087;-74
2023/04/15 02:22:21;;;;;;;8.65;4.60;;;;;;;;;;5006148;28;25056;-75
2023/04/15 02:24:47;;;;;;;7.95;5.40;;;;;;;;;;5011715;28;25122;-75
2023/04/15 02:27:17;;;;;;;11.48;6.28;;;;;;;;;;5010273;28;25110;-74
2023/04/15 02:29:44;;;;;;;11.63;5.53;;;;;;;;;;5008542;28;25165;-74
2023/04/15 02:32:10;;;;;;;10.45;5.75;;;;;;;;;;4992430;28;25065;-76
2023/04/15 02:34:40;;;;;;;8.40;4.82;;;;;;;;;;5012600;28;25056;-74
2023/04/15 02:37:06;;;;;;;12.00;5.60;;;;;;;;;;5004765;28;25075;-75
2023/04/15 02:39:32;;;;;;;9.00;5.45;;;;;;;;;;5002792;28;25074;-75
2023/04/15 02:41:59;;;;;;;15.48;6.28;;;;;;;;;;5015243;28;25077;-75
2023/04/15 02:44:26;;;;;;;9.60;5.93;;;;;;;;;;5014136;28;25077;-74
2023/04/15 02:46:53;;;;;;;7.80;5.60;;;;;;;;;;5014072;28;25113;-73
2023/04/15 02:49:19;;;;;;;9.98;5.57;;;;;;;;;;5017308;28;25166;-74
2023/04/15 02:51:48;;;;;;;13.35;5.82;;;;;;;;;;5011801;28;25113;-75
2023/04/15 02:54:18;;;;;;;12.20;6.32;;;;;;;;;;5004352;28;25117;-75
2023/04/15 02:56:44;;;;;;;11.23;6.78;;;;;;;;;;5006161;28;25179;-73
2023/04/15 02:59:11;;;;;;;13.05;6.15;;;;;;;;;;5016454;28;25125;-75
2023/04/15 03:01:37;;;;;;;10.38;5.78;;;;;;;;;;4994410;28;25061;-76
2023/04/15 03:04:03;;;;;;;11.18;5.28;;;;;;;;;;5009899;28;25072;-73
2023/04/15 03:06:29;;;;;;;9.40;4.70;;;;;;;;;;5017233;28;25106;-74
2023/04/15 03:08:55;;;;;;;13.55;6.20;;;;;;;;;;5020967;28;25097;-76
2023/04/15 03:11:22;;;;;;;9.10;6.28;;;;;;;;;;5003264;28;25065;-73
2023/04/15 03:13:48;;;;;;;9.32;5.60;;;;;;;;;;5012809;28;25102;-74
2023/04/15 03:16:15;;;;;;;11.38;5.18;;;;;;;;;;5023475;28;25091;-73
2023/04/15 03:18:41;;;;;;;14.98;6.38;;;;;;;;;;5004431;28;25057;-76
2023/04/15 03:21:07;;;;;;;10.25;5.07;;;;;;;;;;5017503;28;25142;-74
2023/04/15 03:23:32;;;;;;;11.02;6.00;;;;;;;;;;4989305;28;25081;-74
2023/04/15 03:26:01;;;;;;;7.53;5.30;;;;;;;;;;5013124;28;25117;-74
2023/04/15 03:28:28;;;;;;;10.25;5.70;;;;;;;;;;5024741;28;25067;-77
2023/04/15 03:30:54;;;;;;;16.70;6.40;;;;;;;;;;5013986;28;25059;-76
2023/04/15 03:33:20;;;;;;;10.23;6.22;;;;;;;;;;5011044;28;25097;-76
2023/04/15 03:35:46;;;;;;;15.57;6.80;;;;;;;;;;5017055;28;25075;-74
2023/04/15 03:38:12;;;;;;;11.07;6.25;;;;;;;;;;4975911;28;25079;-75
2023/04/15 03:40:40;;;;;;;12.73;6.40;;;;;;;;;;5018140;28;25086;-75
2023/04/15 03:43:06;;;;;;;11.85;6.72;;;;;;;;;;4992808;28;25122;-76
2023/04/15 03:45:32;;;;;;;15.45;5.95;;;;;;;;;;5000687;28;25070;-74
2023/04/15 03:47:58;;;;;;;12.88;6.97;;;;;;;;;;5010306;28;25098;-75
2023/04/15 03:50:24;;;;;;;15.45;6.63;;;;;;;;;;5010534;28;25068;-74
2023/04/15 03:52:50;;;;;;;13.18;6.82;;;;;;;;;;5018475;28;25158;-76
2023/04/15 03:55:16;;;;;;;15.52;6.35;;;;;;;;;;5005740;28;25113;-75
2023/04/15 03:57:42;;;;;;;12.18;6.45;;;;;;;;;;5011986;28;25153;-74
2023/04/15 04:00:11;;;;;;;11.35;6.22;;;;;;;;;;5002757;28;25077;-75
2023/04/15 04:02:37;;;;;;;12.75;5.82;;;;;;;;;;4999210;28;25139;-74
2023/04/15 04:05:03;;;;;;;12.48;6.50;;;;;;;;;;5002972;28;25117;-76
2023/04/15 04:07:29;;;;;;;11.88;6.55;;;;;;;;;;5002067;28;25050;-74
2023/04/15 04:09:57;;;;;;;13.27;6.13;;;;;;;;;;4997040;28;25078;-76
2023/04/15 04:12:22;;;;;;;11.02;5.88;;;;;;;;;;5002593;28;25077;-74
2023/04/15 04:14:49;;;;;;;10.23;6.15;;;;;;;;;;5002759;28;25078;-74
2023/04/15 04:17:15;;;;;;;11.85;6.40;;;;;;;;;;5011750;28;25150;-74
2023/04/15 04:19:41;;;;;;;9.52;5.60;;;;;;;;;;5003231;28;25079;-75
2023/04/15 04:22:07;;;;;;;10.77;5.65;;;;;;;;;;5003851;28;25151;-75
2023/04/15 04:24:33;;;;;;;12.32;5.97;;;;;;;;;;5007572;28;25073;-75
2023/04/15 04:26:59;;;;;;;13.13;6.70;;;;;;;;;;5011206;28;25072;-76
2023/04/15 04:29:25;;;;;;;10.07;5.78;;;;;;;;;;5013601;28;25075;-75
2023/04/15 04:31:51;;;;;;;11.70;6.47;;;;;;;;;;5007632;28;25071;-74
2023/04/15 04:34:17;;;;;;;12.52;5.10;;;;;;;;;;5012935;28;25064;-73
2023/04/15 04:36:43;;;;;;;11.95;6.80;;;;;;;;;;5009310;28;25154;-75
2023/04/15 04:39:09;;;;;;;10.85;5.97;;;;;;;;;;5003927;28;25071;-72
2023/04/15 04:41:35;;;;;;;9.32;6.20;;;;;;;;;;5011182;28;25097;-75
2023/04/15 04:44:02;;;;;;;14.00;6.40;;;;;;;;;;5015525;28;25072;-74
2023/04/15 04:46:28;;;;;;;14.60;6.60;;;;;;;;;;5011979;28;25055;-75
2023/04/15 04:48:54;;;;;;;11.77;5.82;;;;;;;;;;5008986;28;25110;-76
2023/04/15 04:51:20;;;;;;;10.50;5.60;;;;;;;;;;5011095;28;25088;-75
2023/04/15 04:53:46;;;;;;;15.40;6.70;;;;;;;;;;5004390;28;25093;-75
2023/04/15 04:56:12;;;;;;;10.57;5.68;;;;;;;;;;5009913;28;25072;-75
2023/04/15 04:58:38;;;;;;;9.10;5.82;;;;;;;;;;5003690;28;25089;-74
2023/04/15 05:01:04;;;;;;;9.23;6.22;;;;;;;;;;5015771;28;25078;-75
2023/04/15 05:03:30;;;;;;;12.00;6.80;;;;;;;;;;5003043;28;25080;-74
2023/04/15 05:05:56;;;;;;;10.98;6.82;;;;;;;;;;5015081;28;25145;-73
2023/04/15 05:08:22;;;;;;;9.63;6.00;;;;;;;;;;5003601;28;25063;-74
2023/04/15 05:10:48;;;;;;;8.88;6.45;;;;;;;;;;5005634;28;25110;-73
2023/04/15 05:13:14;;;;;;;11.25;6.25;;;;;;;;;;5001468;28;25113;-74
2023/04/15 05:15:42;;;;;;;11.90;5.97;;;;;;;;;;5012047;28;25063;-74
2023/04/15 05:18:08;;;;;;;14.15;6.82;;;;;;;;;;5012216;28;25125;-74
2023/04/15 05:20:34;;;;;;;11.45;6.95;;;;;;;;;;5003588;28;25054;-73
2023/04/15 05:23:00;;;;;;;9.98;6.57;;;;;;;;;;5007781;28;25139;-77
2023/04/15 05:25:25;;;;;;;13.30;6.78;;;;;;;;;;5017813;28;25168;-74
2023/04/15 05:27:51;;;;;;;12.80;6.43;;;;;;;;;;5015188;28;25069;-74
2023/04/15 05:30:17;;;;;;;11.55;6.65;;;;;;;;;;5012526;28;25080;-74
2023/04/15 05:32:43;;;;;;;14.52;7.38;;;;;;;;;;5014576;28;25052;-74
2023/04/15 05:35:09;;;;;;;15.43;6.68;;;;;;;;;;5010633;28;25073;-72
2023/04/15 05:37:35;;;;;;;12.35;6.50;;;;;;;;;;5017263;28;25073;-72
2023/04/15 05:40:03;;;;;;;11.75;6.65;;;;;;;;;;5014311;28;25157;-73
2023/04/15 05:42:29;;;;;;;10.50;6.45;;;;;;;;;;5006604;28;25125;-74
2023/04/15 05:44:55;;;;;;;10.52;6.35;;;;;;;;;;5008463;28;25077;-72
2023/04/15 05:47:21;;;;;;;14.63;6.38;;;;;;;;;;5025043;28;25086;-74
2023/04/15 05:49:47;;;;;;;10.13;6.82;;;;;;;;;;5016683;28;25061;-76
2023/04/15 05:52:13;;;;;;;11.32;6.25;;;;;;;;;;5021420;28;25087;-75
2023/04/15 05:54:39;;;;;;;10.98;6.85;;;;;;;;;;5003318;28;25085;-76
2023/04/15 05:57:05;;;;;;;11.40;6.88;;;;;;;;;;5006685;28;25070;-75
2023/04/15 05:59:31;;;;;;;13.73;7.32;;;;;;;;;;5004409;28;25069;-75
2023/04/15 06:01:57;;;;;;;16.40;7.75;;;;;;;;;;5010723;28;25091;-79
2023/04/15 06:04:23;;;;;;;15.38;6.57;;;;;;;;;;5014639;28;25062;-77
2023/04/15 06:06:49;;;;;;;11.52;6.95;;;;;;;;;;5012080;28;25087;-77
2023/04/15 06:09:15;;;;;;;12.70;7.18;;;;;;;;;;5015783;28;25082;-79
2023/04/15 06:11:41;;;;;;;13.73;7.07;;;;;;;;;;5026310;28;25131;-76
2023/04/15 06:14:07;;;;;;;10.02;6.55;;;;;;;;;;4991705;28;25057;-79
2023/04/15 06:16:35;;;;;;;14.00;7.15;;;;;;;;;;5008318;28;25077;-80
2023/04/15 06:19:01;;;;;;;11.98;6.53;;;;;;;;;;5017709;28;25099;-77
2023/04/15 06:21:27;;;;;;;13.05;6.57;;;;;;;;;;5014928;28;25103;-79
2023/04/15 06:23:53;;;;;;;11.88;7.05;;;;;;;;;;5003989;28;25081;-78
2023/04/15 06:26:19;;;;;;;13.07;7.07;;;;;;;;;;5006749;28;25072;-76
2023/04/15 06:28:45;;;;;;;13.00;6.85;;;;;;;;;;5008877;28;25146;-77
2023/04/15 06:31:11;;;;;;;13.13;6.72;;;;;;;;;;5006454;28;25083;-77
2023/04/15 06:33:37;;;;;;;11.05;6.45;;;;;;;;;;5006302;28;25065;-76
2023/04/15 06:36:03;;;;;;;14.43;6.88;;;;;;;;;;5006934;28;25091;-77
2023/04/15 06:38:29;;;;;;;11.35;6.32;;;;;;;;;;5012841;28;25079;-78
2023/04/15 06:40:55;;;;;;;8.77;5.90;;;;;;;;;;5011897;28;25078;-78
2023/04/15 06:43:21;;;;;;;13.18;6.38;;;;;;;;;;5007157;28;25052;-78
2023/04/15 06:45:47;;;;;;;16.52;7.18;;;;;;;;;;4994779;28;25167;-78
2023/04/15 06:48:13;;;;;;;15.38;6.57;;;;;;;;;;5004263;28;25084;-73
2023/04/15 06:50:39;;;;;;;11.32;7.38;;;;;;;;;;5007027;28;25067;-79
2023/04/15 06:53:05;;;;;;;14.43;7.68;;;;;;;;;;5011458;28;25132;-75
2023/04/15 06:55:32;;;;;;;14.23;9.10;;;;;;;;;;5019507;28;25168;-74
2023/04/15 06:57:58;;;;;;;12.50;7.13;;;;;;;;;;5007614;28;25067;-76
2023/04/15 07:00:25;;;;;;;13.32;7.22;;;;;;;;;;5009244;28;25087;-76
2023/04/15 07:02:51;;;;;;;12.13;7.30;;;;;;;;;;5017432;28;25067;-76
2023/04/15 07:05:17;;;;;;;16.33;7.88;;;;;;;;;;5017676;28;25067;-79
2023/04/15 07:07:44;;;;;;;12.63;6.90;;;;;;;;;;5020919;28;25067;-80
2023/04/15 07:10:10;;;;;;;12.73;6.68;;;;;;;;;;5007035;28;25113;-79
2023/04/15 07:12:36;;;;;;;12.20;6.80;;;;;;;;;;5008633;28;25076;-77
2023/04/15 07:15:03;;;;;;;14.68;6.80;;;;;;;;;;4992737;28;25111;-76
2023/04/15 07:17:29;;;;;;;9.68;6.43;;;;;;;;;;5007384;28;25132;-76
2023/04/15 07:19:55;;;;;;;15.77;6.50;;;;;;;;;;5021281;28;25086;-77
2023/04/15 07:22:21;;;;;;;11.95;7.15;;;;;;;;;;5008745;28;25071;-78
2023/04/15 07:24:47;;;;;;;18.10;6.72;;;;;;;;;;5028003;28;25055;-77
2023/04/15 07:27:13;;;;;;;11.15;6.45;;;;;;;;;;5009080;28;25062;-77
2023/04/15 07:29:39;;;;;;;10.82;6.53;;;;;;;;;;5013199;28;25349;-76
2023/04/15 07:32:05;;;;;;;11.48;6.97;;;;;;;;;;5020496;28;25068;-76
2023/04/15 07:34:31;;;;;;;10.23;6.57;;;;;;;;;;5015017;28;25087;-73
2023/04/15 07:36:57;;;;;;;11.57;7.25;;;;;;;;;;5011732;28;25083;-75
2023/04/15 07:39:23;;;;;;;9.15;6.30;;;;;;;;;;5015570;28;25113;-77
2023/04/15 07:41:49;;;;;;;12.25;7.45;;;;;;;;;;5011178;28;25070;-77
2023/04/15 07:44:15;;;;;;;13.63;7.15;;;;;;;;;;5007481;28;25073;-76
2023/04/15 07:46:41;;;;;;;14.95;7.97;;;;;;;;;;5010036;28;25068;-73
2023/04/15 07:49:07;;;;;;;11.00;6.78;;;;;;;;;;5021593;28;25068;-76
2023/04/15 07:51:33;;;;;;;12.80;6.95;;;;;;;;;;4994522;28;25081;-72
2023/04/15 07:53:59;;;;;;;11.50;6.85;;;;;;;;;;5017989;28;25067;-76
2023/04/15 07:56:25;;;;;;;14.05;7.30;;;;;;;;;;5010354;28;25082;-77
2023/04/15 07:58:51;;;;;;;12.15;6.47;;;;;;;;;;5015519;28;25157;-75
2023/04/15 08:01:17;;;;;;;18.40;7.85;;;;;;;;;;5012124;28;25078;-73
2023/04/15 08:03:43;;;;;;;9.23;6.45;;;;;;;;;;5016521;28;25089;-74
2023/04/15 08:06:09;;;;;;;11.48;6.72;;;;;;;;;;5012202;28;25113;-75
2023/04/15 08:08:35;;;;;;;9.82;6.65;;;;;;;;;;5015131;28;25079;-75
2023/04/15 08:11:01;;;;;;;11.48;6.45;;;;;;;;;;4984688;28;25081;-74
2023/04/15 08:13:27;;;;;;;9.55;6.70;;;;;;;;;;5016227;28;25098;-74
2023/04/15 08:16:13;;;;;;;12.05;7.20;;;;;;;;;;5017420;28;25142;-74
2023/04/15 08:18:39;;;;;;;10.18;6.40;;;;;;;;;;5011588;28;25075;-75
2023/04/15 08:21:05;;;;;;;10.43;5.07;;;;;;;;;;5016359;28;25075;-73
2023/04/15 08:23:32;;;;;;;8.50;5.18;;;;;;;;;;5016795;28;25064;-72
2023/04/15 08:25:58;;;;;;;6.85;4.55;;;;;;;;;;4997570;28;25054;-75
2023/04/15 08:28:24;;;;;;;6.97;4.82;;;;;;;;;;5013038;28;25138;-74
2023/04/15 08:30:52;;;;;;;9.23;5.50;;;;;;;;;;5012343;28;25112;-73
2023/04/15 08:33:18;;;;;;;10.05;5.88;;;;;;;;;;5012092;28;25101;-72
2023/04/15 08:35:44;;;;;;;9.88;5.38;;;;;;;;;;5004433;28;25151;-74
2023/04/15 08:38:10;;;;;;;9.93;5.88;;;;;;;;;;5003059;28;25101;-74
2023/04/15 08:40:43;;;;;;;10.05;5.60;;;;;;;;;;5005578;28;25137;-74
2023/04/15 08:43:10;;;;;;;11.02;6.05;;;;;;;;;;5002947;28;25145;-74
2023/04/15 08:45:38;;;;;;;17.63;7.18;;;;;;;;;;5009957;28;25106;-74
2023/04/15 08:48:05;;;;;;;10.65;6.13;;;;;;;;;;5009560;28;25073;-76
2023/04/15 08:50:32;;;;;;;13.27;6.65;;;;;;;;;;5004837;28;25075;-74
2023/04/15 08:53:01;;;;;;;12.50;7.03;;;;;;;;;;4989699;28;25066;-73
2023/04/15 08:55:29;;;;;;;9.98;5.97;;;;;;;;;;4992147;28;25063;-74
2023/04/15 08:57:56;;;;;;;12.85;6.72;;;;;;;;;;5009284;28;25071;-73
2023/04/15 09:00:22;;;;;;;14.18;7.10;;;;;;;;;;5014076;28;25083;-74
2023/04/15 09:02:48;;;;;;;11.63;7.03;;;;;;;;;;5006904;28;25067;-76
2023/04/15 09:05:15;;;;;;;12.38;7.13;;;;;;;;;;5004087;28;25049;-74
2023/04/15 09:07:41;;;;;;;10.30;6.53;;;;;;;;;;5009671;28;25054;-72
2023/04/15 09:10:07;;;;;;;12.63;6.68;;;;;;;;;;5019562;28;25065;-75
2023/04/15 09:12:35;;;;;;;11.68;6.25;;;;;;;;;;5017402;28;25108;-73
2023/04/15 09:15:01;;;;;;;13.32;6.20;;;;;;;;;;5007681;28;25075;-77
2023/04/15 09:17:28;;;;;;;11.02;5.80;;;;;;;;;;5008090;28;25105;-77
2023/04/15 09:20:13;;;;;;;8.80;4.95;;;;;;;;;;5006146;28;25100;-77
2023/04/15 09:22:39;;;;;;;9.57;5.70;;;;;;;;;;5005538;28;25081;-76
2023/04/15 09:25:27;;;;;;;8.02;4.60;;;;;;;;;;5004341;28;25064;-76
2023/04/15 09:27:54;;;;;;;9.77;5.20;;;;;;;;;;4985435;28;25105;-75
2023/04/15 09:30:20;;;;;;;13.43;5.65;;;;;;;;;;5009858;28;25044;-76
2023/04/15 09:32:53;;;;;;;11.25;5.75;;;;;;;;;;5016841;28;25066;-76
2023/04/15 09:35:20;;;;;;;6.97;3.83;;;;;;;;;;5006212;28;25077;-75
2023/04/15 09:37:46;;;;;;;8.40;4.53;;;;;;;;;;5016279;28;25106;-75
2023/04/15 09:40:12;;;;;;;6.38;4.32;;;;;;;;;;5014637;28;25171;-73
2023/04/15 09:42:55;;;;;;;8.65;4.55;;;;;;;;;;5015551;28;25155;-74
2023/04/15 09:45:21;;;;;;;10.07;4.13;;;;;;;;;;5012123;28;25088;-76
2023/04/15 09:47:47;;;;;;;11.75;3.40;;;;;;;;;;5006976;28;25111;-72
2023/04/15 09:50:14;;;;;;;6.40;2.92;;;;;;;;;;5005813;28;25102;-74
2023/04/15 09:52:43;;;;;;;11.73;3.35;;;;;;;;;;4982097;28;25150;-74
2023/04/15 09:55:09;;;;;;;4.90;2.97;;;;;;;;;;4996962;28;25085;-76
2023/04/15 09:57:36;;;;;;;5.50;3.17;;;;;;;;;;5002425;28;25080;-75
2023/04/15 10:00:09;;;;;;;4.38;3.20;;;;;;;;;;5002536;28;25076;-76
2023/04/15 10:02:36;;;;;;;5.63;3.38;;;;;;;;;;5004556;28;25081;-73
2023/04/15 10:05:02;;;;;;;7.80;2.63;;;;;;;;;;4999312;28;25060;-73
2023/04/15 10:07:29;;;;;;;4.55;3.13;;;;;;;;;;5004140;28;25065;-76
2023/04/15 10:09:55;;;;;;;4.18;2.80;;;;;;;;;;5004837;28;25089;-73
2023/04/15 10:12:22;;;;;;;6.47;4.00;;;;;;;;;;5005064;28;25069;-75
2023/04/15 10:14:50;;;;;;;7.88;3.75;;;;;;;;;;5005709;28;25066;-75
2023/04/15 10:17:17;;;;;;;4.10;3.08;;;;;;;;;;5001178;28;25065;-74
2023/04/15 10:19:43;;;;;;;5.53;2.83;;;;;;;;;;5010197;28;25056;-75
2023/04/15 10:22:09;;;;;;;5.55;3.20;;;;;;;;;;5003388;28;25124;-77
2023/04/15 10:24:36;;;;;;;5.93;3.17;;;;;;;;;;5006516;28;25139;-74
2023/04/15 10:27:05;;;;;;;8.27;3.70;;;;;;;;;;5009959;28;25102;-78
2023/04/15 10:29:31;;;;;;;7.07;4.47;;;;;;;;;;5011635;28;25076;-75
2023/04/15 10:31:58;;;;;;;6.43;3.65;;;;;;;;;;5013759;28;25071;-75
2023/04/15 10:34:25;;;;;;;5.25;3.50;;;;;;;;;;5029771;28;25059;-76
2023/04/15 10:36:51;;;;;;;5.68;3.90;;;;;;;;;;5000653;28;25085;-75
2023/04/15 10:39:32;;;;;;;6.10;2.90;;;;;;;;;;5018031;28;25122;-76
2023/04/15 10:42:15;;;;;;;4.80;2.00;;;;;;;;;;5013270;28;25093;-75
2023/04/15 10:44:42;;;;;;;4.60;2.00;;;;;;;;;;5016449;28;25088;-73
2023/04/15 10:47:12;;;;;;;3.83;2.00;;;;;;;;;;5013760;28;25123;-74
2023/04/15 10:50:04;;;;;;;5.57;2.60;;;;;;;;;;5014059;28;25050;-77
2023/04/15 10:52:30;;;;;;;4.70;3.03;;;;;;;;;;5001796;28;25163;-73
2023/04/15 10:55:22;;;;;;;5.47;3.10;;;;;;;;;;5011702;28;25164;-75
2023/04/15 10:57:51;;;;;;;5.97;3.65;;;;;;;;;;5002335;28;25057;-75
2023/04/15 11:00:18;;;;;;;6.93;3.78;;;;;;;;;;4999748;28;25068;-75
2023/04/15 11:02:44;;;;;;;10.40;3.85;;;;;;;;;;5010199;28;25126;-76
2023/04/15 11:05:11;;;;;;;5.68;2.90;;;;;;;;;;5013264;28;25070;-71
2023/04/15 11:07:38;;;;;;;6.20;3.08;;;;;;;;;;5016533;28;25077;-73
2023/04/15 11:10:24;;;;;;;3.20;2.67;;;;;;;;;;5011237;28;25064;-77
2023/04/15 11:13:01;;;;;;;2.75;2.42;;;;;;;;;;5015469;28;25052;-72
2023/04/15 11:15:32;;;;;;;6.32;2.28;;;;;;;;;;5019794;28;25060;-72
2023/04/15 11:17:59;;;;;;;4.88;2.00;;;;;;;;;;5010875;28;25058;-72
2023/04/15 11:20:25;;;;;;;2.97;2.05;;;;;;;;;;4993195;28;25120;-71
2023/04/15 11:22:53;;;;;;;4.18;1.90;;;;;;;;;;4998375;28;25064;-71
2023/04/15 11:25:26;;;;;;;3.00;2.00;;;;;;;;;;5022363;28;25099;-75
2023/04/15 11:27:56;;;;;;;5.80;2.55;;;;;;;;;;5018725;28;25067;-72
2023/04/15 11:30:23;;;;;;;2.97;2.25;;;;;;;;;;5020677;28;25071;-73
2023/04/15 11:32:50;;;;;;;4.70;2.03;;;;;;;;;;4999172;28;25073;-76
2023/04/15 11:35:17;;;;;;;2.92;2.22;;;;;;;;;;5010753;28;25080;-73
2023/04/15 11:37:43;;;;;;;5.70;2.40;;;;;;;;;;5013782;28;25098;-75
2023/04/15 11:40:09;;;;;;;4.25;2.30;;;;;;;;;;4990592;28;25097;-76
2023/04/15 11:42:35;;;;;;;5.53;2.58;;;;;;;;;;5010133;28;25059;-71
2023/04/15 11:45:08;;;;;;;3.53;2.45;;;;;;;;;;5009118;28;25078;-74
2023/04/15 11:47:35;;;;;;;5.25;2.75;;;;;;;;;;5008009;28;25065;-75
2023/04/15 11:50:15;;;;;;;4.13;2.95;;;;;;;;;;5015293;28;25055;-73
2023/04/15 11:52:41;;;;;;;4.63;2.33;;;;;;;;;;5017321;28;25050;-76
2023/04/15 11:55:07;;;;;;;3.05;2.35;;;;;;;;;;5010640;28;25081;-74
2023/04/15 11:57:34;;;;;;;6.05;3.05;;;;;;;;;;5008751;28;25111;-74
2023/04/15 12:00:00;;;;;;;4.32;3.10;;;;;;;;;;5012326;28;25061;-74
2023/04/15 12:02:36;;;;;;;4.68;2.90;;;;;;;;;;5008071;28;25079;-70
2023/04/15 12:05:05;;;;;;;6.53;3.25;;;;;;;;;;5008379;28;25121;-72
2023/04/15 12:07:31;;;;;;;5.07;3.53;;;;;;;;;;5015894;28;25069;-75
2023/04/15 12:09:58;;;;;;;7.03;4.10;;;;;;;;;;5002356;28;25141;-71
2023/04/15 12:12:27;;;;;;;6.35;3.40;;;;;;;;;;5016264;28;25085;-76
2023/04/15 12:14:56;;;;;;;5.72;3.60;;;;;;;;;;5002787;28;25181;-76
2023/04/15 12:17:23;;;;;;;6.28;3.58;;;;;;;;;;5012852;28;25079;-75
2023/04/15 12:19:55;;;;;;;5.95;3.70;;;;;;;;;;5021830;28;25159;-75
2023/04/15 12:22:21;;;;;;;6.25;3.40;;;;;;;;;;5016692;28;25100;-74
2023/04/15 12:24:53;;;;;;;6.22;3.63;;;;;;;;;;5018126;28;25071;-76
2023/04/15 12:27:20;;;;;;;7.55;3.80;;;;;;;;;;5015931;28;25163;-76
2023/04/15 12:29:46;;;;;;;7.55;3.65;;;;;;;;;;5022314;28;25092;-75
2023/04/15 12:32:12;;;;;;;5.18;3.33;;;;;;;;;;5026549;28;25056;-75
2023/04/15 12:34:39;;;;;;;6.05;3.80;;;;;;;;;;5006580;28;25111;-75
2023/04/15 12:37:06;;;;;;;4.55;2.95;;;;;;;;;;5018188;28;25152;-72
2023/04/15 12:39:35;;;;;;;6.30;2.78;;;;;;;;;;5001530;28;25056;-73
2023/04/15 12:42:01;;;;;;;5.13;2.63;;;;;;;;;;5016619;28;25066;-72
2023/04/15 12:44:27;;;;;;;5.50;2.83;;;;;;;;;;5008722;28;25134;-76
2023/04/15 12:46:53;;;;;;;4.60;2.95;;;;;;;;;;5007531;28;25074;-73
2023/04/15 12:49:23;;;;;;;9.00;3.05;;;;;;;;;;5027037;28;25091;-76
2023/04/15 12:51:49;;;;;;;4.57;2.70;;;;;;;;;;4982702;28;25079;-75
2023/04/15 12:54:18;;;;;;;4.65;2.72;;;;;;;;;;4999413;28;25104;-75
2023/04/15 12:56:48;;;;;;;6.35;2.80;;;;;;;;;;5009918;28;25068;-70
2023/04/15 12:59:15;;;;;;;5.15;2.35;;;;;;;;;;5020833;28;25098;-71
2023/04/15 13:01:41;;;;;;;3.97;2.88;;;;;;;;;;5001748;28;25127;-73
2023/04/15 13:04:08;;;;;;;7.25;3.13;;;;;;;;;;5003347;28;25064;-74
2023/04/15 13:06:33;;;;;;;6.80;2.13;;;;;;;;;;5006327;28;25100;-73
2023/04/15 13:09:00;;;;;;;2.88;1.85;;;;;;;;;;5021962;28;25075;-74
2023/04/15 13:11:28;;;;;;;3.95;1.58;;;;;;;;;;5006559;28;25063;-72
2023/04/15 13:13:54;;;;;;;4.55;1.50;;;;;;;;;;5005640;28;25080;-72
2023/04/15 13:16:20;;;;;;;5.38;1.80;;;;;;;;;;5019659;28;25131;-74
2023/04/15 13:18:48;;;;;;;3.65;1.63;;;;;;;;;;4982356;28;25105;-70
2023/04/15 13:21:14;;;;;;;3.10;2.00;;;;;;;;;;5010859;28;25148;-77
2023/04/15 13:23:43;;;;;;;2.03;1.17;;;;;;;;;;5015138;28;25070;-72
2023/04/15 13:26:09;;;;;;;2.00;1.33;;;;;;;;;;5009425;28;25079;-73
2023/04/15 13:28:36;;;;;;;3.72;1.70;;;;;;;;;;5016484;28;25076;-74
2023/04/15 13:31:02;;;;;;;2.90;1.60;;;;;;;;;;5016945;28;25054;-72
2023/04/15 13:33:28;;;;;;;4.05;1.60;;;;;;;;;;4991072;28;25076;-76
2023/04/15 13:35:54;;;;;;;3.13;1.40;;;;;;;;;;5013637;28;25060;-73
2023/04/15 13:38:20;;;;;;;7.60;2.17;;;;;;;;;;5015880;28;25073;-72
2023/04/15 13:40:46;;;;;;;2.33;1.77;;;;;;;;;;5026050;28;25079;-72
2023/04/15 13:43:12;;;;;;;2.47;1.35;;;;;;;;;;5032522;28;25089;-72
2023/04/15 13:45:38;;;;;;;3.97;1.40;;;;;;;;;;5021727;28;25048;-72
2023/04/15 13:48:04;;;;;;;2.20;1.30;;;;;;;;;;5029060;28;25081;-74
2023/04/15 13:50:30;;;;;;;3.72;1.27;;;;;;;;;;5028440;28;25099;-76
2023/04/15 13:52:56;;;;;;;3.05;1.75;;;;;;;;;;5026986;28;25077;-79
2023/04/15 13:55:22;;;;;;;3.15;1.40;;;;;;;;;;5021595;28;25084;-73
2023/04/15 13:57:49;;;;;;;2.30;1.52;;;;;;;;;;5008385;28;25059;-76
2023/04/15 14:00:15;;;;;;;4.90;1.92;;;;;;;;;;5027848;28;25094;-73
2023/04/15 14:02:41;;;;;;;4.43;1.75;;;;;;;;;;5035597;28;25058;-76
2023/04/15 14:05:08;;;;;;;2.08;1.40;;;;;;;;;;5014620;28;25152;-76
2023/04/15 14:07:34;;;;;;;2.63;1.73;;;;;;;;;;5017893;28;25083;-76
2023/04/15 14:10:00;;;;;;;1.77;1.40;;;;;;;;;;5011167;28;25069;-71
2023/04/15 14:12:26;;;;;;;6.85;1.60;;;;;;;;;;5015844;28;25103;-72
2023/04/15 14:14:52;;;;;;;1.90;1.70;;;;;;;;;;5009770;28;25114;-71
2023/04/15 14:17:18;;;;;;;2.42;2.03;;;;;;;;;;4997086;28;25070;-77
2023/04/15 14:19:44;;;;;;;1.67;1.15;;;;;;;;;;5007410;28;25160;-74
2023/04/15 14:22:10;;;;;;;1.27;1.05;;;;;;;;;;4992297;28;25092;-72
2023/04/15 14:24:36;;;;;;;3.72;1.25;;;;;;;;;;5006466;28;25066;-71
2023/04/15 14:27:02;;;;;;;3.47;1.25;;;;;;;;;;5003546;28;25149;-75
2023/04/15 14:29:28;;;;;;;3.05;1.20;;;;;;;;;;4999945;28;25156;-74
2023/04/15 14:31:56;;;;;;;1.65;1.20;;;;;;;;;;5022064;28;25065;-73
2023/04/15 14:34:24;;;;;;;2.45;1.25;;;;;;;;;;5002981;28;25064;-74